Time;durP1;ratioP1;P1;durP2;ratioP2;P2;SDS_P1;SDS_P2;PMS_P1;PMS_P2;Temp;Humidity;BMP_temperature;BMP_pressure;BME280_temperature;BME280_humidity;BME280_pressure;Samples;Min_cycle;Max_cycle;Signal;HPM_P1;HPM_P2
2023/03/24 00:00:16;;;;;;;5.80;5.30;;;14.10;99.90;;;;;;5038595;28;20212;-82
2023/03/24 00:02:44;;;;;;;5.43;4.93;;;14.10;99.90;;;;;;5019902;28;20191;-82
2023/03/24 00:05:12;;;;;;;5.80;5.30;;;14.00;99.90;;;;;;4999175;28;20195;-83
2023/03/24 00:07:39;;;;;;;5.40;4.90;;;14.10;99.90;;;;;;5019454;28;20188;-81
2023/03/24 00:10:12;;;;;;;5.90;5.20;;;14.10;99.90;;;;;;5037729;28;20719;-82
2023/03/24 00:12:38;;;;;;;6.00;5.50;;;14.10;99.90;;;;;;5034486;28;20531;-82
2023/03/24 00:15:09;;;;;;;5.77;5.27;;;14.10;99.90;;;;;;5016897;28;20181;-81
2023/03/24 00:17:35;;;;;;;5.93;5.40;;;14.10;99.90;;;;;;5021390;28;20686;-82
2023/03/24 00:20:13;;;;;;;6.13;5.60;;;14.10;99.90;;;;;;5003866;28;20703;-81
2023/03/24 00:22:49;;;;;;;5.93;5.30;;;14.10;99.90;;;;;;4997583;28;20271;-83
2023/03/24 00:25:20;;;;;;;5.70;5.20;;;14.10;99.90;;;;;;4998473;28;20178;-82
2023/03/24 00:27:50;;;;;;;5.30;4.87;;;14.00;99.90;;;;;;4997525;28;20177;-79
2023/03/24 00:30:17;;;;;;;6.73;5.60;;;14.10;99.90;;;;;;4997952;28;20213;-81
2023/03/24 00:32:43;;;;;;;5.20;4.80;;;14.10;99.90;;;;;;4998494;28;20202;-81
2023/03/24 00:35:12;;;;;;;5.63;5.23;;;14.10;99.90;;;;;;4999491;28;20202;-78
2023/03/24 00:37:39;;;;;;;6.03;5.40;;;13.90;99.90;;;;;;5009976;28;20189;-81
2023/03/24 00:40:09;;;;;;;4.90;4.50;;;13.80;99.90;;;;;;4999698;28;20273;-81
2023/03/24 00:42:38;;;;;;;7.43;5.40;;;13.80;99.90;;;;;;5013404;28;20244;-81
2023/03/24 00:45:05;;;;;;;5.40;5.00;;;13.80;99.90;;;;;;5018323;28;20228;-81
2023/03/24 00:47:35;;;;;;;5.53;5.03;;;13.70;99.90;;;;;;5016282;28;20180;-82
2023/03/24 00:50:05;;;;;;;5.10;4.67;;;13.80;99.90;;;;;;4997843;28;20425;-83
2023/03/24 00:52:34;;;;;;;5.50;5.00;;;13.70;99.90;;;;;;5015235;28;20183;-83
2023/03/24 00:55:03;;;;;;;5.60;5.10;;;13.70;99.90;;;;;;4997006;28;20312;-82
2023/03/24 00:57:33;;;;;;;5.40;5.00;;;13.70;99.90;;;;;;4996688;28;20201;-81
2023/03/24 01:00:08;;;;;;;4.30;3.90;;;13.70;99.90;;;;;;4996302;28;20215;-81
2023/03/24 01:02:34;;;;;;;5.33;4.83;;;13.90;99.90;;;;;;4997251;28;20187;-82
2023/03/24 01:05:01;;;;;;;4.80;4.40;;;13.90;99.90;;;;;;4996282;28;20186;-81
2023/03/24 01:07:28;;;;;;;5.50;5.07;;;13.90;99.90;;;;;;5027902;28;20178;-81
2023/03/24 01:09:56;;;;;;;5.40;4.50;;;13.90;99.90;;;;;;5016514;28;20205;-82
2023/03/24 01:12:35;;;;;;;7.37;5.20;;;13.90;99.90;;;;;;5016079;28;20663;-81
2023/03/24 01:15:06;;;;;;;6.67;4.80;;;13.80;99.90;;;;;;5015401;28;20154;-81
2023/03/24 01:17:33;;;;;;;5.17;4.60;;;13.80;99.90;;;;;;5014820;28;20247;-80
2023/03/24 01:19:59;;;;;;;5.70;5.20;;;13.70;99.90;;;;;;5015256;28;20210;-83
2023/03/24 01:22:29;;;;;;;5.57;5.07;;;13.60;99.90;;;;;;5015500;28;20182;-82
2023/03/24 01:24:55;;;;;;;5.80;5.30;;;13.50;99.90;;;;;;5016263;28;20186;-81
2023/03/24 01:27:22;;;;;;;5.30;4.80;;;13.60;99.90;;;;;;5013694;28;20604;-83
2023/03/24 01:29:47;;;;;;;5.13;4.73;;;13.50;99.90;;;;;;4998245;28;20261;-81
2023/03/24 01:32:13;;;;;;;5.27;4.77;;;13.60;99.90;;;;;;4998573;28;20178;-83
2023/03/24 01:34:39;;;;;;;5.00;4.50;;;13.60;99.90;;;;;;4998108;28;20526;-81
2023/03/24 01:37:05;;;;;;;4.70;4.30;;;13.70;99.90;;;;;;4980536;28;20322;-81
2023/03/24 01:39:31;;;;;;;4.83;4.00;;;13.60;99.90;;;;;;5015437;28;20214;-80
2023/03/24 01:41:57;;;;;;;5.40;4.90;;;13.70;99.90;;;;;;5016255;28;20204;-82
2023/03/24 01:44:23;;;;;;;4.70;4.40;;;13.70;99.90;;;;;;5015987;28;20178;-82
2023/03/24 01:46:49;;;;;;;4.43;4.13;;;13.40;99.90;;;;;;5014241;28;20672;-83
2023/03/24 01:49:15;;;;;;;4.47;4.07;;;13.50;99.90;;;;;;4975779;28;1157782;-82
2023/03/24 01:51:44;;;;;;;5.03;4.63;;;13.40;99.90;;;;;;5016677;28;20177;-80
2023/03/24 01:54:24;;;;;;;5.10;4.70;;;13.40;99.90;;;;;;5017215;28;20185;-81
2023/03/24 01:57:08;;;;;;;4.80;4.40;;;13.40;99.90;;;;;;5014636;28;20188;-81
2023/03/24 01:59:38;;;;;;;5.00;4.60;;;13.40;99.90;;;;;;5017214;28;20212;-81
2023/03/24 02:02:05;;;;;;;5.57;4.50;;;13.50;99.90;;;;;;5017603;28;20195;-80
2023/03/24 02:04:37;;;;;;;4.77;4.37;;;13.50;99.90;;;;;;5017906;28;20200;-82
2023/03/24 02:07:17;;;;;;;4.90;4.50;;;13.50;99.90;;;;;;5031374;28;20197;-82
2023/03/24 02:09:43;;;;;;;4.87;4.33;;;13.40;99.90;;;;;;5036307;28;20303;-82
2023/03/24 02:12:09;;;;;;;4.67;4.37;;;13.40;99.90;;;;;;5035704;28;20189;-82
2023/03/24 02:14:35;;;;;;;4.83;4.53;;;13.20;99.90;;;;;;5016805;28;20189;-82
2023/03/24 02:17:29;;;;;;;5.10;4.70;;;13.30;99.90;;;;;;5015881;28;20310;-83
2023/03/24 02:20:12;;;;;;;4.77;4.37;;;13.30;99.90;;;;;;5016431;28;20203;-82
2023/03/24 02:23:15;;;;;;;4.90;4.50;;;13.30;99.90;;;;;;5015994;28;20275;-81
2023/03/24 02:26:11;;;;;;;4.50;4.17;;;13.40;99.90;;;;;;5016664;28;20192;-82
2023/03/24 02:28:59;;;;;;;4.40;4.10;;;13.40;99.90;;;;;;5001046;28;20226;-81
2023/03/24 02:31:43;;;;;;;4.90;4.50;;;13.50;99.90;;;;;;4996130;28;20645;-82
2023/03/24 02:34:35;;;;;;;5.47;4.70;;;13.50;99.90;;;;;;5002954;28;20186;-82
2023/03/24 02:37:26;;;;;;;5.00;4.40;;;13.40;99.90;;;;;;5011488;28;20190;-81
2023/03/24 02:40:24;;;;;;;4.73;4.37;;;13.40;99.90;;;;;;5014887;28;20197;-81
2023/03/24 02:43:20;;;;;;;5.30;4.80;;;13.40;99.90;;;;;;4994689;28;20197;-81
2023/03/24 02:46:12;;;;;;;4.97;4.43;;;13.30;99.90;;;;;;4997072;28;20621;-81
2023/03/24 02:48:56;;;;;;;5.07;4.57;;;13.40;99.90;;;;;;4996523;28;20218;-82
2023/03/24 02:51:22;;;;;;;5.13;4.57;;;13.40;99.90;;;;;;4996481;28;20236;-82
2023/03/24 02:54:11;;;;;;;4.93;4.53;;;13.50;99.90;;;;;;5077481;22;20314;-82
2023/03/24 02:56:48;;;;;;;4.40;4.10;;;13.50;99.90;;;;;;5058048;28;20182;-85
2023/03/24 02:59:36;;;;;;;5.30;4.57;;;13.50;99.90;;;;;;5052559;28;20179;-85
2023/03/24 03:02:15;;;;;;;4.80;4.17;;;13.40;99.90;;;;;;5047953;28;20197;-86
2023/03/24 03:04:52;;;;;;;5.20;4.70;;;13.40;99.90;;;;;;5046633;28;20210;-85
2023/03/24 03:07:22;;;;;;;5.07;4.40;;;13.30;99.90;;;;;;5029972;28;20576;-85
2023/03/24 03:10:04;;;;;;;4.10;3.80;;;13.30;99.90;;;;;;5026561;28;20216;-86
2023/03/24 03:12:33;;;;;;;4.90;4.50;;;13.30;99.90;;;;;;5028803;28;20190;-85
2023/03/24 03:15:04;;;;;;;5.17;4.60;;;13.30;99.90;;;;;;5027654;28;20184;-86
2023/03/24 03:17:37;;;;;;;4.53;4.10;;;13.30;99.90;;;;;;5027700;28;20637;-86
2023/03/24 03:20:08;;;;;;;5.03;4.63;;;13.40;99.90;;;;;;5029212;28;20161;-81
2023/03/24 03:22:48;;;;;;;4.83;4.43;;;13.40;99.90;;;;;;5029360;28;20201;-80
2023/03/24 03:25:20;;;;;;;5.37;4.90;;;13.40;99.90;;;;;;5028745;28;20198;-84
2023/03/24 03:27:46;;;;;;;4.80;4.40;;;13.50;99.90;;;;;;5029516;28;20271;-85
2023/03/24 03:30:21;;;;;;;4.70;4.30;;;13.60;99.90;;;;;;5029952;28;20209;-80
2023/03/24 03:32:59;;;;;;;4.80;4.40;;;13.60;99.90;;;;;;5031705;28;20234;-85
2023/03/24 03:36:01;;;;;;;4.37;4.07;;;13.50;99.90;;;;;;5029594;28;20209;-85
2023/03/24 03:38:53;;;;;;;4.57;4.17;;;13.50;99.90;;;;;;5016810;28;20218;-84
2023/03/24 03:41:19;;;;;;;4.80;4.30;;;13.40;99.90;;;;;;5026072;28;20211;-86
2023/03/24 03:43:47;;;;;;;4.50;4.10;;;13.40;99.50;;;;;;5011301;28;20714;-85
2023/03/24 03:46:14;;;;;;;4.50;4.13;;;13.40;99.90;;;;;;5028719;28;20177;-83
2023/03/24 03:48:41;;;;;;;4.90;4.50;;;13.50;96.20;;;;;;5030562;28;20212;-85
2023/03/24 03:51:08;;;;;;;5.47;4.87;;;13.50;94.30;;;;;;5030067;28;20194;-83
2023/03/24 03:54:00;;;;;;;5.70;5.23;;;13.60;90.70;;;;;;5030212;28;20232;-84
2023/03/24 03:56:29;;;;;;;5.73;5.30;;;13.60;91.70;;;;;;5028095;28;20186;-84
2023/03/24 03:58:55;;;;;;;6.27;5.20;;;13.60;90.80;;;;;;5030058;28;20166;-85
2023/03/24 04:01:24;;;;;;;5.80;5.30;;;13.60;91.00;;;;;;5011977;28;20244;-85
2023/03/24 04:03:49;;;;;;;7.20;5.27;;;13.60;91.30;;;;;;5033286;28;20196;-85
2023/03/24 04:06:57;;;;;;;5.50;5.00;;;13.50;91.60;;;;;;5040501;28;20232;-86
2023/03/24 04:09:25;;;;;;;5.70;5.20;;;13.60;90.50;;;;;;4989042;28;20213;-84
2023/03/24 04:12:20;;;;;;;5.40;5.00;;;13.60;90.60;;;;;;5028404;28;20172;-85
2023/03/24 04:15:21;;;;;;;5.30;4.80;;;13.70;90.10;;;;;;4996682;28;20188;-85
2023/03/24 04:18:04;;;;;;;5.43;4.90;;;13.70;89.00;;;;;;4991139;28;20190;-83
2023/03/24 04:21:12;;;;;;;5.77;5.20;;;13.80;87.80;;;;;;5007918;28;20480;-83
2023/03/24 04:23:48;;;;;;;6.57;5.23;;;13.80;87.20;;;;;;5030456;28;20240;-84
2023/03/24 04:26:33;;;;;;;5.27;4.87;;;13.90;87.20;;;;;;5032357;28;20205;-85
2023/03/24 04:29:04;;;;;;;7.57;5.30;;;14.00;88.50;;;;;;5037425;28;20194;-85
2023/03/24 04:31:36;;;;;;;6.47;5.97;;;13.90;92.70;;;;;;5029090;28;20195;-85
2023/03/24 04:34:30;;;;;;;7.43;6.23;;;13.80;96.60;;;;;;5027821;28;20166;-85
2023/03/24 04:37:11;;;;;;;7.07;6.47;;;13.80;99.70;;;;;;5035397;28;20204;-84
2023/03/24 04:39:41;;;;;;;6.80;6.20;;;13.80;99.90;;;;;;5030256;28;20259;-83
2023/03/24 04:42:18;;;;;;;6.73;6.13;;;13.70;99.90;;;;;;5027039;28;20226;-84
2023/03/24 04:44:44;;;;;;;7.37;6.50;;;13.60;99.90;;;;;;5026686;28;20175;-84
2023/03/24 04:47:11;;;;;;;7.23;6.63;;;13.50;99.90;;;;;;5026759;28;20185;-83
2023/03/24 04:49:40;;;;;;;7.47;6.67;;;13.40;99.90;;;;;;5028489;28;20202;-83
2023/03/24 04:52:06;;;;;;;10.50;7.50;;;13.30;99.90;;;;;;5037751;28;20234;-83
2023/03/24 04:54:32;;;;;;;7.60;6.70;;;13.20;99.90;;;;;;5027707;28;20219;-83
2023/03/24 04:57:00;;;;;;;8.63;7.73;;;13.20;99.90;;;;;;5025917;28;20204;-85
2023/03/24 04:59:28;;;;;;;8.03;7.23;;;13.20;99.90;;;;;;5024303;28;20192;-81
2023/03/24 05:01:53;;;;;;;6.87;6.30;;;13.10;99.90;;;;;;5025031;28;20212;-83
2023/03/24 05:04:24;;;;;;;7.47;6.87;;;13.00;99.90;;;;;;5024508;28;20223;-83
2023/03/24 05:06:50;;;;;;;7.33;6.63;;;13.00;99.90;;;;;;5026487;28;20192;-83
2023/03/24 05:09:21;;;;;;;7.73;7.10;;;13.00;99.90;;;;;;5025899;28;20208;-85
2023/03/24 05:11:48;;;;;;;7.80;7.20;;;13.00;99.90;;;;;;5025136;28;20184;-82
2023/03/24 05:14:14;;;;;;;8.20;7.50;;;13.00;99.90;;;;;;5040664;28;20172;-84
2023/03/24 05:16:40;;;;;;;7.37;6.77;;;13.00;99.90;;;;;;5026412;28;20188;-83
2023/03/24 05:19:06;;;;;;;7.33;6.73;;;13.00;99.90;;;;;;5025970;28;20194;-83
2023/03/24 05:21:32;;;;;;;7.60;7.00;;;13.00;99.90;;;;;;5026135;28;20607;-83
2023/03/24 05:23:59;;;;;;;6.27;5.77;;;13.00;99.90;;;;;;5041101;28;20213;-84
2023/03/24 05:26:27;;;;;;;7.63;6.83;;;12.90;99.90;;;;;;5027832;28;20257;-80
2023/03/24 05:28:53;;;;;;;7.10;6.40;;;12.90;99.90;;;;;;5034758;28;20219;-85
2023/03/24 05:31:19;;;;;;;6.90;6.20;;;12.90;99.90;;;;;;5027439;28;20250;-84
2023/03/24 05:33:45;;;;;;;6.60;6.00;;;12.80;99.90;;;;;;5044944;28;20196;-81
2023/03/24 05:36:11;;;;;;;6.30;5.70;;;12.80;99.90;;;;;;5045032;28;20202;-84
2023/03/24 05:38:37;;;;;;;6.10;5.57;;;12.80;99.90;;;;;;5025823;28;20184;-82
2023/03/24 05:41:02;;;;;;;6.33;5.83;;;12.80;99.90;;;;;;5026861;28;20201;-83
2023/03/24 05:43:29;;;;;;;6.97;6.30;;;12.80;99.90;;;;;;5026975;28;20215;-81
2023/03/24 05:45:55;;;;;;;6.60;6.00;;;12.80;99.90;;;;;;5025737;28;20185;-84
2023/03/24 05:48:21;;;;;;;7.57;6.87;;;12.80;99.90;;;;;;5025647;28;20250;-84
2023/03/24 05:50:47;;;;;;;6.67;6.03;;;12.70;99.90;;;;;;5026676;28;20184;-85
2023/03/24 05:53:12;;;;;;;7.30;6.70;;;12.70;99.90;;;;;;5028351;28;20212;-85
2023/03/24 05:55:39;;;;;;;7.60;6.70;;;12.70;99.90;;;;;;5024012;28;20323;-83
2023/03/24 05:58:05;;;;;;;7.47;6.87;;;12.70;99.90;;;;;;5024306;28;20154;-81
2023/03/24 06:00:32;;;;;;;7.53;6.93;;;12.70;99.90;;;;;;5009228;28;20188;-84
2023/03/24 06:02:58;;;;;;;7.20;6.60;;;12.80;99.90;;;;;;5003560;28;20210;-84
2023/03/24 06:05:25;;;;;;;7.87;7.07;;;12.70;99.90;;;;;;5005017;28;20198;-81
2023/03/24 06:07:57;;;;;;;7.10;6.43;;;12.80;99.90;;;;;;5025424;28;20170;-86
2023/03/24 06:10:26;;;;;;;7.57;6.80;;;12.80;99.90;;;;;;5025523;28;20197;-81
2023/03/24 06:12:53;;;;;;;7.43;6.83;;;12.80;99.90;;;;;;5014602;28;20205;-87
2023/03/24 06:15:18;;;;;;;6.73;6.23;;;12.90;99.90;;;;;;5017426;28;20268;-84
2023/03/24 06:17:45;;;;;;;7.30;6.80;;;12.80;99.90;;;;;;5016080;28;20209;-84
2023/03/24 06:20:15;;;;;;;8.87;6.53;;;12.90;99.90;;;;;;5015126;28;20288;-85
2023/03/24 06:22:43;;;;;;;6.93;6.20;;;12.80;99.90;;;;;;5012885;28;20240;-84
2023/03/24 06:25:14;;;;;;;6.97;6.37;;;12.80;99.90;;;;;;5016580;28;20180;-82
2023/03/24 06:27:44;;;;;;;7.67;6.57;;;12.80;99.90;;;;;;5016010;28;20657;-85
2023/03/24 06:30:11;;;;;;;7.53;6.40;;;12.70;99.90;;;;;;5012900;28;20224;-86
2023/03/24 06:32:37;;;;;;;7.03;6.40;;;12.80;99.90;;;;;;5013935;28;20205;-84
2023/03/24 06:35:03;;;;;;;8.50;7.67;;;12.80;99.90;;;;;;4999978;28;20211;-82
2023/03/24 06:37:29;;;;;;;7.27;6.57;;;12.80;99.90;;;;;;5017278;28;20257;-88
2023/03/24 06:39:55;;;;;;;6.93;6.20;;;12.90;99.90;;;;;;5001933;28;20633;-86
2023/03/24 06:42:20;;;;;;;7.77;6.33;;;12.80;99.90;;;;;;5019453;28;20239;-82
2023/03/24 06:44:46;;;;;;;6.53;5.97;;;12.90;99.90;;;;;;5018076;28;20203;-86
2023/03/24 06:47:11;;;;;;;7.60;6.03;;;12.80;99.90;;;;;;5023239;28;20219;-85
2023/03/24 06:49:37;;;;;;;7.67;5.77;;;12.80;99.90;;;;;;5028293;28;20212;-83
2023/03/24 06:52:04;;;;;;;7.40;6.53;;;12.80;99.90;;;;;;5027985;28;20197;-81
2023/03/24 06:54:29;;;;;;;6.57;5.97;;;12.70;99.90;;;;;;5028794;28;20190;-82
2023/03/24 06:56:55;;;;;;;6.17;5.43;;;12.70;99.90;;;;;;5026120;28;20189;-86
2023/03/24 06:59:23;;;;;;;6.47;5.87;;;12.80;99.90;;;;;;5028398;28;20186;-85
2023/03/24 07:01:52;;;;;;;6.37;5.77;;;12.70;99.90;;;;;;5037492;28;20429;-83
2023/03/24 07:04:17;;;;;;;6.33;5.83;;;12.70;99.90;;;;;;5047414;28;20271;-84
2023/03/24 07:06:44;;;;;;;6.37;5.87;;;12.70;99.90;;;;;;5047221;28;20188;-85
2023/03/24 07:09:10;;;;;;;6.53;5.93;;;12.70;99.90;;;;;;5049041;28;20261;-81
2023/03/24 07:11:37;;;;;;;6.37;5.87;;;12.70;99.90;;;;;;5048658;28;20170;-84
2023/03/24 07:14:03;;;;;;;6.63;5.87;;;12.70;99.90;;;;;;5048771;28;20192;-83
2023/03/24 07:16:28;;;;;;;6.07;5.57;;;12.60;99.90;;;;;;5025028;28;20205;-85
2023/03/24 07:18:54;;;;;;;6.53;5.83;;;12.50;99.90;;;;;;5034298;28;20276;-83
2023/03/24 07:21:19;;;;;;;7.53;5.93;;;12.50;99.90;;;;;;5028318;28;20225;-83
2023/03/24 07:23:45;;;;;;;7.20;6.50;;;12.50;99.90;;;;;;5027596;28;20247;-85
2023/03/24 07:26:11;;;;;;;6.40;5.90;;;12.50;99.90;;;;;;5025958;28;20196;-82
2023/03/24 07:28:36;;;;;;;6.50;6.00;;;12.50;99.90;;;;;;5043817;28;20254;-82
2023/03/24 07:31:03;;;;;;;7.20;6.50;;;12.40;99.90;;;;;;5046556;28;20186;-80
2023/03/24 07:33:30;;;;;;;7.47;6.77;;;12.40;99.90;;;;;;5045845;28;20667;-84
2023/03/24 07:35:56;;;;;;;7.53;6.70;;;12.40;99.90;;;;;;5045619;28;20179;-80
2023/03/24 07:38:23;;;;;;;6.83;6.00;;;12.40;99.90;;;;;;5047750;28;20174;-81
2023/03/24 07:40:49;;;;;;;7.83;6.50;;;12.40;99.90;;;;;;5048487;28;20204;-80
2023/03/24 07:43:16;;;;;;;7.23;6.50;;;12.40;99.90;;;;;;5046786;28;20729;-82
2023/03/24 07:45:44;;;;;;;6.60;6.00;;;12.40;99.90;;;;;;5043193;28;20186;-82
2023/03/24 07:48:10;;;;;;;7.10;6.40;;;12.40;99.90;;;;;;5028511;28;20165;-83
2023/03/24 07:50:36;;;;;;;6.37;5.77;;;12.50;99.90;;;;;;5026839;28;20293;-84
2023/03/24 07:53:02;;;;;;;6.93;6.23;;;12.50;99.90;;;;;;5027773;28;20213;-87
2023/03/24 07:55:28;;;;;;;7.83;6.23;;;12.50;99.90;;;;;;5027514;28;20170;-82
2023/03/24 07:57:54;;;;;;;6.40;5.70;;;12.50;99.90;;;;;;5026973;28;20183;-84
2023/03/24 08:00:20;;;;;;;6.10;5.27;;;12.60;99.90;;;;;;5028683;28;20352;-84
2023/03/24 08:02:51;;;;;;;5.70;5.20;;;12.70;99.90;;;;;;5027777;28;20203;-85
2023/03/24 08:05:18;;;;;;;6.13;5.27;;;12.70;99.90;;;;;;4995043;28;20187;-84
2023/03/24 08:07:52;;;;;;;6.40;5.23;;;12.60;99.90;;;;;;5028825;28;20182;-84
2023/03/24 08:10:20;;;;;;;6.60;6.00;;;12.60;99.90;;;;;;5028501;28;20291;-82
2023/03/24 08:12:46;;;;;;;5.53;5.03;;;12.70;99.90;;;;;;5041845;28;20200;-82
2023/03/24 08:15:13;;;;;;;5.00;4.47;;;12.80;99.90;;;;;;5034657;28;20282;-83
2023/03/24 08:17:39;;;;;;;5.60;5.10;;;12.80;99.90;;;;;;5030393;28;20187;-81
2023/03/24 08:20:13;;;;;;;5.77;5.27;;;12.80;99.90;;;;;;5046239;28;20176;-82
2023/03/24 08:22:44;;;;;;;5.17;4.67;;;12.80;99.90;;;;;;5007254;28;20202;-84
2023/03/24 08:25:11;;;;;;;5.60;5.10;;;12.90;99.90;;;;;;5006209;28;20227;-85
2023/03/24 08:27:38;;;;;;;5.00;4.60;;;13.00;99.90;;;;;;5006402;28;20181;-83
2023/03/24 08:30:07;;;;;;;4.83;4.43;;;13.00;99.90;;;;;;5006486;28;20210;-86
2023/03/24 08:32:34;;;;;;;4.57;4.17;;;13.00;99.90;;;;;;5020399;28;20265;-82
2023/03/24 08:35:01;;;;;;;4.50;4.20;;;13.10;99.90;;;;;;5048312;28;20172;-85
2023/03/24 08:37:27;;;;;;;5.07;4.47;;;13.10;99.90;;;;;;5048603;28;20183;-83
2023/03/24 08:39:57;;;;;;;4.97;4.10;;;13.10;99.90;;;;;;5047730;28;20196;-84
2023/03/24 08:42:23;;;;;;;4.80;4.30;;;13.10;99.90;;;;;;5048443;28;20199;-83
2023/03/24 08:44:49;;;;;;;4.73;4.33;;;13.20;99.90;;;;;;5046588;28;20180;-87
2023/03/24 08:47:15;;;;;;;4.70;4.30;;;13.30;99.90;;;;;;5047259;28;20636;-86
2023/03/24 08:49:40;;;;;;;4.70;4.30;;;13.30;99.90;;;;;;5045730;28;20271;-85
2023/03/24 08:52:07;;;;;;;4.40;4.00;;;13.40;99.90;;;;;;5046786;28;20202;-85
2023/03/24 08:54:33;;;;;;;4.50;4.00;;;13.40;99.90;;;;;;5034986;28;20195;-83
2023/03/24 08:56:59;;;;;;;4.13;3.73;;;13.50;99.90;;;;;;5027692;28;20177;-84
2023/03/24 08:59:24;;;;;;;4.33;4.00;;;13.50;99.90;;;;;;5027345;28;20192;-85
2023/03/24 09:01:50;;;;;;;4.40;4.00;;;13.60;99.90;;;;;;5028339;28;20243;-83
2023/03/24 09:04:16;;;;;;;7.00;4.47;;;13.60;99.90;;;;;;5027907;28;20195;-86
2023/03/24 09:06:42;;;;;;;5.30;4.17;;;13.40;99.90;;;;;;5027802;28;20193;-86
2023/03/24 09:09:07;;;;;;;4.67;4.27;;;13.40;99.90;;;;;;5028284;28;20211;-83
2023/03/24 09:11:33;;;;;;;5.03;4.63;;;13.30;99.90;;;;;;5028660;28;20462;-84
2023/03/24 09:13:59;;;;;;;6.67;4.67;;;13.30;99.90;;;;;;5027141;28;20292;-81
2023/03/24 09:16:25;;;;;;;5.10;4.60;;;13.40;99.90;;;;;;5025713;28;20503;-83
2023/03/24 09:18:51;;;;;;;5.83;4.40;;;13.50;99.90;;;;;;5044279;28;20191;-82
2023/03/24 09:21:17;;;;;;;5.87;4.83;;;13.50;99.90;;;;;;5035798;28;20428;-86
2023/03/24 09:23:43;;;;;;;5.23;4.73;;;13.50;99.90;;;;;;5018299;28;20204;-86
2023/03/24 09:26:08;;;;;;;4.63;4.23;;;13.50;99.90;;;;;;5044765;28;20215;-84
2023/03/24 09:28:34;;;;;;;4.90;4.50;;;13.50;99.90;;;;;;5045668;28;20184;-82
2023/03/24 09:31:02;;;;;;;6.00;4.97;;;13.60;99.90;;;;;;5046650;28;20171;-83
2023/03/24 09:33:29;;;;;;;6.13;4.60;;;13.60;99.90;;;;;;5047558;28;20235;-81
2023/03/24 09:35:59;;;;;;;4.70;4.30;;;13.60;99.90;;;;;;5046423;28;20176;-82
2023/03/24 09:38:25;;;;;;;4.80;4.40;;;13.60;99.90;;;;;;5029495;28;20187;-82
2023/03/24 09:40:59;;;;;;;4.20;3.90;;;13.70;99.90;;;;;;5047176;28;20186;-81
2023/03/24 09:43:43;;;;;;;4.67;4.27;;;13.80;99.90;;;;;;5044929;28;20228;-84
2023/03/24 09:46:34;;;;;;;4.33;4.00;;;13.90;99.90;;;;;;5045061;28;20215;-83
2023/03/24 09:49:01;;;;;;;4.47;4.07;;;14.00;99.90;;;;;;5045918;28;20188;-84
2023/03/24 09:51:41;;;;;;;4.70;4.23;;;14.00;99.90;;;;;;5045516;28;20176;-86
2023/03/24 09:54:06;;;;;;;4.60;4.20;;;14.00;99.90;;;;;;5045590;28;20658;-85
2023/03/24 09:56:36;;;;;;;3.93;3.63;;;14.00;99.90;;;;;;5045289;28;20690;-86
2023/03/24 09:59:12;;;;;;;4.13;3.73;;;14.00;99.90;;;;;;5047104;28;20187;-85
2023/03/24 10:01:38;;;;;;;3.97;3.67;;;13.90;99.90;;;;;;5048410;28;20190;-83
2023/03/24 10:04:11;;;;;;;4.37;3.97;;;13.90;99.90;;;;;;5041194;28;20170;-84
2023/03/24 10:06:40;;;;;;;3.60;3.30;;;14.00;99.90;;;;;;5030701;28;20204;-84
2023/03/24 10:09:15;;;;;;;4.20;3.80;;;14.00;99.90;;;;;;5031587;28;20281;-85
2023/03/24 10:12:09;;;;;;;3.80;3.50;;;14.00;99.90;;;;;;5031768;28;20169;-86
2023/03/24 10:14:45;;;;;;;3.37;3.10;;;14.10;99.90;;;;;;5049130;28;20192;-85
2023/03/24 10:18:00;;;;;;;3.70;3.40;;;14.10;99.90;;;;;;5056858;28;20191;-86
2023/03/24 10:20:35;;;;;;;3.73;3.30;;;14.10;99.90;;;;;;5055908;28;20667;-86
2023/03/24 10:23:11;;;;;;;3.90;3.60;;;14.10;99.90;;;;;;5035966;28;20208;-87
2023/03/24 10:26:14;;;;;;;3.87;3.47;;;14.20;99.90;;;;;;5028583;28;20211;-84
2023/03/24 10:28:51;;;;;;;3.87;3.50;;;14.20;99.90;;;;;;4997793;28;20193;-83
2023/03/24 10:31:23;;;;;;;3.23;2.90;;;14.30;99.60;;;;;;5010166;28;20193;-83
2023/03/24 10:33:48;;;;;;;3.73;3.10;;;14.40;99.90;;;;;;5020309;28;20218;-85
2023/03/24 10:36:19;;;;;;;3.73;3.47;;;14.50;99.90;;;;;;5020733;28;20197;-85
2023/03/24 10:38:47;;;;;;;4.00;3.70;;;14.70;99.90;;;;;;5014637;28;20204;-87
2023/03/24 10:41:15;;;;;;;3.67;3.40;;;14.70;98.10;;;;;;5018814;28;20542;-86
2023/03/24 10:43:43;;;;;;;3.77;3.47;;;14.80;97.70;;;;;;5021284;28;20206;-86
2023/03/24 10:46:13;;;;;;;4.13;3.77;;;14.80;97.30;;;;;;5016052;28;20254;-88
2023/03/24 10:48:39;;;;;;;3.70;3.40;;;14.90;96.30;;;;;;5016829;28;20289;-85
2023/03/24 10:51:06;;;;;;;3.60;3.30;;;14.90;97.60;;;;;;5020331;28;20218;-87
2023/03/24 10:53:33;;;;;;;3.50;3.30;;;14.80;97.00;;;;;;5017147;28;20301;-86
2023/03/24 10:55:59;;;;;;;3.87;3.40;;;14.90;95.30;;;;;;5001243;28;20213;-86
2023/03/24 10:58:39;;;;;;;3.77;2.97;;;14.90;96.50;;;;;;5018560;28;20272;-82
2023/03/24 11:01:20;;;;;;;3.60;3.40;;;15.00;95.00;;;;;;5019290;28;20182;-87
2023/03/24 11:03:47;;;;;;;2.80;2.60;;;15.00;94.90;;;;;;5019811;28;20312;-85
2023/03/24 11:06:17;;;;;;;3.93;3.20;;;14.90;94.00;;;;;;5014575;28;20245;-86
2023/03/24 11:08:42;;;;;;;3.40;3.10;;;14.80;95.60;;;;;;5015062;28;20182;-85
2023/03/24 11:11:23;;;;;;;3.27;3.07;;;14.80;99.90;;;;;;5001440;28;20208;-87
2023/03/24 11:13:57;;;;;;;3.23;3.03;;;15.20;97.60;;;;;;5020158;28;20230;-84
2023/03/24 11:16:37;;;;;;;3.50;3.20;;;15.00;97.70;;;;;;5012541;28;20195;-86
2023/03/24 11:19:06;;;;;;;4.30;3.40;;;14.80;99.90;;;;;;5015254;28;20190;-87
2023/03/24 11:21:36;;;;;;;4.37;3.37;;;14.80;99.90;;;;;;5017145;28;20204;-82
2023/03/24 11:24:09;;;;;;;3.43;3.10;;;14.90;99.90;;;;;;5020291;28;20241;-87
2023/03/24 11:26:37;;;;;;;4.20;2.93;;;14.90;99.90;;;;;;5015306;28;20186;-84
2023/03/24 11:29:23;;;;;;;3.50;3.20;;;14.80;99.90;;;;;;5017126;28;20232;-83
2023/03/24 11:31:57;;;;;;;3.60;3.30;;;14.90;99.90;;;;;;5019150;28;20193;-86
2023/03/24 11:34:32;;;;;;;3.03;2.83;;;14.80;99.90;;;;;;5020174;28;20268;-84
2023/03/24 11:37:12;;;;;;;3.30;3.00;;;14.70;99.90;;;;;;5015874;28;20178;-83
2023/03/24 11:39:38;;;;;;;3.13;2.93;;;14.70;99.90;;;;;;5018763;28;20189;-85
2023/03/24 11:42:11;;;;;;;3.27;2.97;;;14.60;99.90;;;;;;5016060;28;21357;-85
2023/03/24 11:44:39;;;;;;;2.93;2.73;;;14.60;99.90;;;;;;5018852;28;20187;-83
2023/03/24 11:47:20;;;;;;;4.27;2.83;;;14.60;99.90;;;;;;4998840;28;20225;-84
2023/03/24 11:49:57;;;;;;;3.33;3.10;;;14.60;99.90;;;;;;5019446;28;20213;-85
2023/03/24 11:52:51;;;;;;;3.33;2.30;;;14.30;91.40;;;;;;5012720;28;20204;-83
2023/03/24 11:55:36;;;;;;;4.87;2.70;;;13.50;91.90;;;;;;5012887;28;20232;-85
2023/03/24 11:58:24;;;;;;;4.73;2.77;;;12.80;99.50;;;;;;5011921;28;20189;-85
2023/03/24 12:01:08;;;;;;;4.47;2.50;;;12.30;99.90;;;;;;5015177;28;20291;-85
2023/03/24 12:04:09;;;;;;;2.57;2.00;;;11.90;99.90;;;;;;5016738;28;20222;-83
2023/03/24 12:06:57;;;;;;;3.67;2.30;;;11.60;99.90;;;;;;4986152;28;20502;-86
2023/03/24 12:09:44;;;;;;;3.10;2.33;;;11.40;99.90;;;;;;5016497;28;20201;-87
2023/03/24 12:12:28;;;;;;;6.17;2.20;;;11.40;99.90;;;;;;5015814;28;20281;-86
2023/03/24 12:15:12;;;;;;;3.57;2.20;;;11.40;99.90;;;;;;5017855;28;20204;-87
2023/03/24 12:17:41;;;;;;;4.20;2.37;;;11.40;99.90;;;;;;5013588;28;20228;-84
2023/03/24 12:20:27;;;;;;;3.53;2.40;;;11.50;99.90;;;;;;5017126;28;20182;-82
2023/03/24 12:23:02;;;;;;;2.87;2.30;;;11.50;99.90;;;;;;5014633;28;20216;-87
2023/03/24 12:25:38;;;;;;;4.57;2.27;;;11.50;99.90;;;;;;5014138;28;20197;-84
2023/03/24 12:28:09;;;;;;;4.40;2.37;;;11.60;99.90;;;;;;5013542;28;20181;-83
2023/03/24 12:30:54;;;;;;;5.87;2.73;;;11.60;99.90;;;;;;5015844;28;20244;-87
2023/03/24 12:33:32;;;;;;;6.13;2.50;;;11.60;99.90;;;;;;5017039;28;20209;-85
2023/03/24 12:36:19;;;;;;;4.07;2.27;;;11.60;99.90;;;;;;5014430;28;20182;-85
2023/03/24 12:39:16;;;;;;;3.43;2.00;;;11.70;99.90;;;;;;5010253;28;20220;-86
2023/03/24 12:42:00;;;;;;;3.13;1.90;;;11.60;99.90;;;;;;5004951;28;20198;-85
2023/03/24 12:44:47;;;;;;;4.13;2.37;;;11.70;99.90;;;;;;5014805;28;20177;-84
2023/03/24 12:47:31;;;;;;;4.50;2.70;;;11.70;99.90;;;;;;5008413;28;20621;-86
2023/03/24 12:50:12;;;;;;;2.63;1.93;;;11.70;99.90;;;;;;5013906;28;20241;-84
2023/03/24 12:52:53;;;;;;;4.20;2.40;;;11.70;99.90;;;;;;5015818;28;20225;-83
2023/03/24 12:55:24;;;;;;;5.37;2.70;;;11.60;99.90;;;;;;5017663;28;20366;-84
2023/03/24 12:58:10;;;;;;;3.23;2.40;;;11.60;99.90;;;;;;5014508;28;20173;-86
2023/03/24 13:00:57;;;;;;;4.83;2.33;;;11.60;99.90;;;;;;5016657;28;20192;-84
2023/03/24 13:03:34;;;;;;;6.23;2.60;;;11.60;99.90;;;;;;5014714;28;20242;-85
2023/03/24 13:06:33;;;;;;;4.90;2.30;;;11.70;99.90;;;;;;5012627;28;20313;-84
2023/03/24 13:09:45;;;;;;;5.03;2.70;;;11.70;99.90;;;;;;5006921;28;20262;-85
2023/03/24 13:12:29;;;;;;;3.90;2.30;;;11.70;99.90;;;;;;5015616;28;20213;-83